Time;durP1;ratioP1;P1;durP2;ratioP2;P2;SDS_P1;SDS_P2;PMS_P1;PMS_P2;Temp;Humidity;BMP_temperature;BMP_pressure;BME280_temperature;BME280_humidity;BME280_pressure;Samples;Min_cycle;Max_cycle;Signal;HPM_P1;HPM_P2
2021/06/10 00:01:45;;;;;;;10.63;7.43;;;;;;;16.88;98.27;101820.72;6250277;28;20053;-78
2021/06/10 00:04:46;;;;;;;11.38;7.32;;;;;;;16.81;97.70;101827.38;6247848;28;20045;-78
2021/06/10 00:07:48;;;;;;;15.25;7.30;;;;;;;16.76;99.48;101826.81;6249422;28;20563;-76
2021/06/10 00:10:49;;;;;;;11.45;8.45;;;;;;;16.71;99.20;101824.41;6247041;28;20106;-77
2021/06/10 00:13:51;;;;;;;20.90;9.63;;;;;;;16.72;99.09;101825.28;6249594;28;20053;-76
2021/06/10 00:16:52;;;;;;;13.55;8.05;;;;;;;16.69;98.92;101818.31;6249501;28;20060;-76
2021/06/10 00:19:53;;;;;;;12.18;8.02;;;;;;;16.68;99.64;101815.78;6249795;28;20132;-77
2021/06/10 00:22:55;;;;;;;15.40;8.73;;;;;;;16.65;99.12;101826.56;6249148;28;20191;-76
2021/06/10 00:25:56;;;;;;;11.80;8.00;;;;;;;16.61;99.51;101819.75;6249666;28;20409;-76
2021/06/10 00:28:58;;;;;;;10.13;8.68;;;;;;;16.58;99.74;101820.81;6249530;28;20058;-76
2021/06/10 00:31:59;;;;;;;11.57;8.63;;;;;;;16.56;100.00;101812.06;6249247;28;20168;-76
2021/06/10 00:35:00;;;;;;;17.45;8.80;;;;;;;16.53;99.62;101816.69;6249332;28;20491;-76
2021/06/10 00:38:01;;;;;;;13.00;8.48;;;;;;;16.50;99.90;101815.09;6249190;28;20115;-76
2021/06/10 00:41:03;;;;;;;9.75;8.13;;;;;;;16.49;99.96;101813.41;6249106;28;20046;-77
2021/06/10 00:44:08;;;;;;;15.40;8.75;;;;;;;16.50;100.00;101817.75;6250795;28;20061;-77
2021/06/10 00:47:08;;;;;;;15.77;9.15;;;;;;;16.54;100.00;101815.78;6251007;28;20123;-76
2021/06/10 00:50:11;;;;;;;10.18;8.20;;;;;;;16.55;100.00;101817.47;6250616;28;20054;-77
2021/06/10 00:53:21;;;;;;;9.38;8.07;;;;;;;16.56;100.00;101812.06;6250469;28;20045;-77
2021/06/10 00:56:22;;;;;;;11.10;8.80;;;;;;;16.57;100.00;101811.13;6250533;28;20136;-77
2021/06/10 00:59:24;;;;;;;13.75;10.55;;;;;;;16.55;100.00;101813.03;6250232;28;20053;-76
2021/06/10 01:02:25;;;;;;;12.88;9.77;;;;;;;16.52;99.87;101812.34;6250383;28;20045;-77
2021/06/10 01:05:26;;;;;;;13.30;9.07;;;;;;;16.52;99.49;101804.38;6251074;28;20075;-77
2021/06/10 01:08:43;;;;;;;12.48;9.50;;;;;;;16.47;100.00;101807.31;6250552;28;20053;-76
2021/06/10 01:11:49;;;;;;;11.90;8.98;;;;;;;16.47;100.00;101804.66;6248805;28;20099;-78
2021/06/10 01:14:59;;;;;;;11.40;9.50;;;;;;;16.39;100.00;101802.47;6248928;28;20053;-78
2021/06/10 01:18:01;;;;;;;11.77;9.52;;;;;;;16.34;100.00;101803.72;6248393;28;20057;-78
2021/06/10 01:21:02;;;;;;;16.58;8.80;;;;;;;16.33;100.00;101799.34;6248359;28;20543;-76
2021/06/10 01:24:13;;;;;;;15.30;8.35;;;;;;;16.28;100.00;101785.53;6247871;28;20049;-75
2021/06/10 01:27:24;;;;;;;11.15;9.20;;;;;;;16.26;100.00;101796.25;6248769;28;20497;-78
2021/06/10 01:30:28;;;;;;;15.02;9.57;;;;;;;16.21;100.00;101796.50;6249198;28;20045;-78
2021/06/10 01:33:33;;;;;;;17.17;9.43;;;;;;;16.15;100.00;101794.22;6247951;28;20045;-77
2021/06/10 01:36:37;;;;;;;16.13;9.93;;;;;;;16.16;100.00;101792.41;6247658;28;20053;-76
2021/06/10 01:39:39;;;;;;;11.85;9.88;;;;;;;16.09;100.00;101793.75;6247854;28;20049;-76
2021/06/10 01:42:42;;;;;;;18.38;9.45;;;;;;;16.11;100.00;101790.03;6247640;28;20046;-76
2021/06/10 01:45:45;;;;;;;12.02;9.95;;;;;;;16.07;100.00;101787.66;6247787;28;20049;-76
2021/06/10 01:48:48;;;;;;;12.45;10.00;;;;;;;16.06;100.00;101786.81;6247582;28;20053;-75
2021/06/10 01:51:52;;;;;;;14.63;9.57;;;;;;;16.03;100.00;101791.44;6247680;28;20041;-78
2021/06/10 01:54:54;;;;;;;10.82;9.07;;;;;;;15.98;100.00;101786.41;6247696;28;20072;-78
2021/06/10 01:57:58;;;;;;;13.10;10.23;;;;;;;15.88;100.00;101779.94;6247944;28;20056;-77
2021/06/10 02:01:02;;;;;;;16.95;9.52;;;;;;;15.90;100.00;101783.38;6247512;28;20045;-78
2021/06/10 02:04:03;;;;;;;14.98;10.38;;;;;;;15.88;100.00;101778.16;6247479;28;20045;-78
2021/06/10 02:07:05;;;;;;;14.43;9.95;;;;;;;15.87;100.00;101776.44;6247872;28;20515;-77
2021/06/10 02:10:09;;;;;;;14.02;10.45;;;;;;;15.81;100.00;101774.16;6247728;28;20053;-77
2021/06/10 02:13:12;;;;;;;13.95;10.25;;;;;;;15.77;100.00;101777.94;6247695;28;20049;-77
2021/06/10 02:16:15;;;;;;;13.68;10.20;;;;;;;15.73;100.00;101771.97;6247040;28;20061;-77
2021/06/10 02:19:17;;;;;;;11.55;9.02;;;;;;;15.69;100.00;101764.28;6247771;28;20049;-77
2021/06/10 02:22:18;;;;;;;17.27;10.60;;;;;;;15.67;100.00;101763.53;6246240;28;20053;-76
2021/06/10 02:25:20;;;;;;;11.13;9.40;;;;;;;15.66;100.00;101753.84;6246526;28;20460;-75
2021/06/10 02:28:22;;;;;;;16.08;10.98;;;;;;;15.54;100.00;101757.19;6246453;28;20060;-75
2021/06/10 02:31:23;;;;;;;14.05;10.75;;;;;;;15.50;100.00;101755.66;6246676;28;20041;-76
2021/06/10 02:34:24;;;;;;;16.40;11.27;;;;;;;15.47;100.00;101754.03;6246541;28;20562;-76
2021/06/10 02:37:27;;;;;;;20.45;9.70;;;;;;;15.48;100.00;101753.94;6246518;28;20084;-76
2021/06/10 02:40:33;;;;;;;21.02;11.25;;;;;;;15.51;100.00;101746.75;6246987;28;20080;-75
2021/06/10 02:43:37;;;;;;;14.88;10.45;;;;;;;15.49;100.00;101746.88;6246545;28;20481;-76
2021/06/10 02:46:40;;;;;;;15.70;10.80;;;;;;;15.46;100.00;101747.88;6246740;28;20049;-75
2021/06/10 02:49:45;;;;;;;16.10;10.93;;;;;;;15.41;100.00;101738.50;6246405;28;20080;-75
2021/06/10 02:52:49;;;;;;;14.10;10.38;;;;;;;15.36;100.00;101743.22;6246443;28;20088;-75
2021/06/10 02:55:52;;;;;;;18.40;11.10;;;;;;;15.33;100.00;101741.59;6246351;28;20056;-76
2021/06/10 02:58:56;;;;;;;16.77;10.32;;;;;;;15.31;100.00;101745.28;6246658;28;20045;-76
2021/06/10 03:01:57;;;;;;;12.93;9.73;;;;;;;15.29;100.00;101749.78;6246305;28;20067;-76
2021/06/10 03:04:58;;;;;;;18.50;10.80;;;;;;;15.30;100.00;101749.69;6246246;28;20501;-76
2021/06/10 03:07:59;;;;;;;15.38;11.35;;;;;;;15.26;100.00;101748.19;6246319;28;20455;-76
2021/06/10 03:11:03;;;;;;;15.98;11.63;;;;;;;15.25;100.00;101750.91;6246148;28;20199;-76
2021/06/10 03:14:07;;;;;;;17.77;10.93;;;;;;;15.21;100.00;101745.81;6246135;28;20049;-76
2021/06/10 03:17:09;;;;;;;16.95;12.75;;;;;;;15.26;100.00;101747.31;6246071;28;20060;-76
2021/06/10 03:20:11;;;;;;;22.30;11.95;;;;;;;15.24;100.00;101750.06;6246329;28;20053;-76
2021/06/10 03:23:13;;;;;;;15.52;11.18;;;;;;;15.24;100.00;101739.47;6245766;28;20417;-76
2021/06/10 03:26:15;;;;;;;15.95;11.32;;;;;;;15.19;100.00;101744.16;6246237;28;20493;-76
2021/06/10 03:29:18;;;;;;;15.88;11.68;;;;;;;15.18;100.00;101740.66;6245983;28;20053;-76
2021/06/10 03:32:25;;;;;;;19.92;11.40;;;;;;;15.15;100.00;101746.13;6246203;28;20041;-75
2021/06/10 03:35:27;;;;;;;14.93;12.10;;;;;;;15.19;100.00;101738.88;6250221;28;20483;-76
2021/06/10 03:38:29;;;;;;;16.98;12.57;;;;;;;15.15;100.00;101740.84;6250803;28;20092;-76
2021/06/10 03:41:30;;;;;;;17.15;12.80;;;;;;;15.17;100.00;101741.63;6250503;28;20507;-76
2021/06/10 03:44:33;;;;;;;19.08;12.20;;;;;;;15.22;100.00;101741.34;6250402;28;20053;-75
2021/06/10 03:47:36;;;;;;;15.75;12.43;;;;;;;15.25;100.00;101746.47;6250485;28;20049;-76
2021/06/10 03:50:37;;;;;;;16.73;11.68;;;;;;;15.32;100.00;101750.47;6249972;28;20068;-75
2021/06/10 03:53:38;;;;;;;14.80;11.70;;;;;;;15.32;100.00;101750.47;6250263;28;20057;-75
2021/06/10 03:56:39;;;;;;;15.18;12.27;;;;;;;15.29;100.00;101741.84;6250049;28;20049;-74
2021/06/10 03:59:41;;;;;;;20.08;12.73;;;;;;;15.28;100.00;101740.16;6250150;28;20571;-76
2021/06/10 04:02:42;;;;;;;17.27;12.20;;;;;;;15.32;100.00;101736.38;6249777;28;20048;-76
2021/06/10 04:05:43;;;;;;;17.92;13.32;;;;;;;15.33;100.00;101744.22;6249866;28;20099;-75
2021/06/10 04:08:44;;;;;;;17.00;12.30;;;;;;;15.37;100.00;101745.75;6249884;28;20497;-76
2021/06/10 04:11:45;;;;;;;21.42;12.65;;;;;;;15.38;100.00;101749.25;6249909;28;20049;-76
2021/06/10 04:14:47;;;;;;;15.65;12.70;;;;;;;15.40;100.00;101737.66;6249454;28;20432;-75
2021/06/10 04:17:48;;;;;;;20.48;13.50;;;;;;;15.40;100.00;101744.75;6249872;28;20050;-76
2021/06/10 04:20:50;;;;;;;24.65;13.35;;;;;;;15.41;100.00;101749.09;6249622;28;20562;-75
2021/06/10 04:23:51;;;;;;;20.63;13.55;;;;;;;15.48;100.00;101750.44;6249324;28;20053;-76
2021/06/10 04:26:52;;;;;;;20.00;14.85;;;;;;;15.44;100.00;101747.13;6249460;28;20500;-76
2021/06/10 04:29:54;;;;;;;20.85;15.80;;;;;;;15.46;100.00;101754.97;6249377;28;20059;-76
2021/06/10 04:32:55;;;;;;;32.88;15.60;;;;;;;15.47;100.00;101756.69;6249303;28;20048;-76
2021/06/10 04:35:56;;;;;;;21.02;14.65;;;;;;;15.46;100.00;101757.63;6249404;28;20633;-76
2021/06/10 04:38:57;;;;;;;21.88;15.15;;;;;;;15.48;100.00;101758.38;6247714;28;20156;-76
2021/06/10 04:41:57;;;;;;;21.20;15.80;;;;;;;15.52;100.00;101759.06;6248845;28;20132;-76
2021/06/10 04:45:00;;;;;;;20.90;16.38;;;;;;;15.55;100.00;101761.53;6248571;28;20049;-75
2021/06/10 04:48:00;;;;;;;23.02;15.65;;;;;;;15.53;100.00;101755.47;6248897;28;20080;-76
2021/06/10 04:51:01;;;;;;;21.38;15.95;;;;;;;15.53;100.00;101764.25;6248739;28;20049;-76
2021/06/10 04:54:02;;;;;;;27.83;18.10;;;;;;;15.57;100.00;101757.00;6248610;28;20555;-76
2021/06/10 04:57:04;;;;;;;21.40;16.20;;;;;;;15.60;100.00;101746.22;6248659;28;20508;-76
2021/06/10 05:00:08;;;;;;;20.65;14.65;;;;;;;15.65;100.00;101746.84;6248723;28;20049;-76
2021/06/10 05:03:09;;;;;;;23.90;15.65;;;;;;;15.67;100.00;101747.63;6247785;28;20053;-76
2021/06/10 05:06:10;;;;;;;20.52;15.63;;;;;;;15.69;100.00;101743.06;6248491;28;20041;-76
2021/06/10 05:09:11;;;;;;;24.65;16.48;;;;;;;15.68;100.00;101744.88;6248551;28;20563;-75
2021/06/10 05:12:12;;;;;;;23.17;14.90;;;;;;;15.73;100.00;101741.94;6248602;28;20052;-76
2021/06/10 05:15:15;;;;;;;19.77;15.38;;;;;;;15.77;100.00;101753.22;6247878;28;20045;-76
2021/06/10 05:18:16;;;;;;;22.85;17.25;;;;;;;15.83;100.00;101751.06;6248472;28;20052;-77
2021/06/10 05:21:17;;;;;;;23.35;16.60;;;;;;;15.88;100.00;101754.28;6248065;28;20049;-76
2021/06/10 05:24:19;;;;;;;22.73;18.60;;;;;;;15.93;100.00;101754.88;6247858;28;20073;-76
2021/06/10 05:27:20;;;;;;;21.73;16.45;;;;;;;15.99;100.00;101758.97;6247235;28;20088;-77
2021/06/10 05:30:22;;;;;;;23.02;17.33;;;;;;;16.03;100.00;101760.47;6247642;28;20069;-76
2021/06/10 05:33:23;;;;;;;21.42;16.75;;;;;;;16.16;100.00;101757.94;6247629;28;20357;-76
2021/06/10 05:36:24;;;;;;;21.58;16.75;;;;;;;16.27;100.00;101752.84;6247434;28;20049;-77
2021/06/10 05:39:25;;;;;;;21.90;16.15;;;;;;;16.34;100.00;101759.47;6247912;28;20385;-76
2021/06/10 05:42:26;;;;;;;29.33;15.40;;;;;;;16.39;100.00;101752.06;6247616;28;20050;-76
2021/06/10 05:45:28;;;;;;;20.50;15.70;;;;;;;16.39;100.00;101752.06;6248165;28;20504;-78
2021/06/10 05:48:29;;;;;;;24.65;16.02;;;;;;;16.42;100.00;101751.88;6246686;28;20471;-76
2021/06/10 05:51:31;;;;;;;21.77;14.77;;;;;;;16.46;100.00;101755.22;6247416;28;20416;-75
2021/06/10 05:54:32;;;;;;;24.10;16.65;;;;;;;16.51;100.00;101758.44;6247135;28;20436;-76
2021/06/10 05:57:33;;;;;;;23.65;15.90;;;;;;;16.50;100.00;101762.03;6246868;28;20091;-76
2021/06/10 06:00:36;;;;;;;17.98;14.02;;;;;;;16.56;100.00;101766.09;6247415;28;20099;-76
2021/06/10 06:03:37;;;;;;;23.20;17.35;;;;;;;16.57;100.00;101767.81;6246955;28;20045;-76
2021/06/10 06:06:38;;;;;;;19.00;15.43;;;;;;;16.55;100.00;101769.72;6246467;28;20052;-76
2021/06/10 06:09:39;;;;;;;24.02;16.55;;;;;;;16.62;100.00;101777.22;6246771;28;20072;-76
2021/06/10 06:12:41;;;;;;;18.73;15.35;;;;;;;16.64;100.00;101770.00;6246842;28;20416;-76
2021/06/10 06:15:43;;;;;;;20.60;15.38;;;;;;;16.70;100.00;101771.41;6246663;28;20050;-76
2021/06/10 06:18:44;;;;;;;19.92;15.50;;;;;;;16.82;100.00;101772.47;6247336;28;20160;-76
2021/06/10 06:21:45;;;;;;;23.35;15.95;;;;;;;16.89;98.91;101776.44;6247200;28;20053;-76
2021/06/10 06:24:46;;;;;;;23.60;16.45;;;;;;;16.94;98.62;101774.31;6246635;28;20045;-76
2021/06/10 06:27:47;;;;;;;19.90;15.75;;;;;;;16.94;99.77;101777.00;6247064;28;20046;-76
2021/06/10 06:30:49;;;;;;;22.30;16.50;;;;;;;16.99;100.00;101774.91;6246782;28;20057;-76
2021/06/10 06:33:50;;;;;;;25.65;17.92;;;;;;;17.07;100.00;101772.59;6246733;28;20045;-75
2021/06/10 06:36:51;;;;;;;29.17;19.17;;;;;;;17.21;100.00;101775.25;6246714;28;20064;-76
2021/06/10 06:39:52;;;;;;;33.30;19.95;;;;;;;17.32;100.00;101776.34;6246663;28;20053;-76
2021/06/10 06:42:53;;;;;;;28.83;19.65;;;;;;;17.35;100.00;101768.16;6246526;28;20485;-76
2021/06/10 06:45:55;;;;;;;27.67;17.80;;;;;;;17.35;100.00;101777.00;6246245;28;20049;-76
2021/06/10 06:48:56;;;;;;;26.77;18.60;;;;;;;17.53;100.00;101782.03;6246806;28;20054;-76
2021/06/10 06:51:57;;;;;;;26.40;18.02;;;;;;;17.57;100.00;101784.38;6246399;28;20095;-76
2021/06/10 06:54:58;;;;;;;26.38;17.77;;;;;;;17.62;100.00;101784.97;6246073;28;20146;-76
2021/06/10 06:57:59;;;;;;;23.70;16.92;;;;;;;17.55;100.00;101783.66;6245589;28;20068;-76
2021/06/10 07:01:01;;;;;;;26.63;17.92;;;;;;;17.59;100.00;101779.00;6246258;28;20137;-76
2021/06/10 07:04:02;;;;;;;26.33;18.17;;;;;;;17.77;100.00;101788.44;6246340;28;20096;-76
2021/06/10 07:07:04;;;;;;;31.17;18.92;;;;;;;17.72;100.00;101794.03;6247286;28;20053;-75
2021/06/10 07:10:05;;;;;;;26.40;19.20;;;;;;;17.77;100.00;101788.44;6251288;28;20095;-75
2021/06/10 07:13:06;;;;;;;25.77;17.55;;;;;;;17.84;100.00;101796.84;6251210;28;20045;-76
2021/06/10 07:16:09;;;;;;;21.77;17.48;;;;;;;17.98;99.28;101794.94;6251081;28;20045;-75
2021/06/10 07:19:10;;;;;;;21.42;17.50;;;;;;;18.17;98.04;101791.91;6250967;28;20046;-75
2021/06/10 07:22:11;;;;;;;22.05;16.90;;;;;;;18.29;96.72;101792.00;6250656;28;20060;-75
2021/06/10 07:25:13;;;;;;;23.63;16.15;;;;;;;18.32;93.63;101789.13;6250489;28;20443;-76
2021/06/10 07:28:14;;;;;;;25.45;17.33;;;;;;;18.48;91.67;101795.94;6251006;28;20405;-75
2021/06/10 07:31:16;;;;;;;28.58;17.20;;;;;;;18.55;91.81;101795.53;6249999;28;20057;-76
2021/06/10 07:34:17;;;;;;;20.60;16.02;;;;;;;18.54;92.37;101793.81;6250341;28;20049;-76
2021/06/10 07:37:18;;;;;;;24.35;16.88;;;;;;;18.61;90.92;101792.41;6250518;28;20056;-76
2021/06/10 07:40:20;;;;;;;21.05;16.67;;;;;;;18.63;91.47;101798.50;6250705;28;20053;-76
2021/06/10 07:43:21;;;;;;;22.20;16.90;;;;;;;18.61;91.55;101795.06;6249978;28;20058;-77
2021/06/10 07:46:23;;;;;;;25.40;18.58;;;;;;;18.58;91.86;101803.31;6250433;28;20181;-75
2021/06/10 07:49:25;;;;;;;26.60;18.75;;;;;;;18.65;91.87;101805.41;6250331;28;20049;-76
2021/06/10 07:52:25;;;;;;;25.05;16.33;;;;;;;18.83;92.37;101807.75;6250301;28;20046;-75
2021/06/10 07:55:27;;;;;;;26.98;18.02;;;;;;;18.83;92.41;101813.94;6248431;28;20119;-75
2021/06/10 07:58:28;;;;;;;23.77;18.83;;;;;;;18.94;92.68;101814.03;6250211;28;20056;-76
2021/06/10 08:01:30;;;;;;;25.17;18.25;;;;;;;18.83;93.25;101811.28;6250084;28;20500;-73
2021/06/10 08:04:31;;;;;;;22.98;17.10;;;;;;;19.01;91.83;101814.44;6249502;28;20050;-75
2021/06/10 08:07:32;;;;;;;23.35;17.92;;;;;;;19.03;91.92;101812.53;6249481;28;20057;-76
2021/06/10 08:10:33;;;;;;;24.27;18.15;;;;;;;19.01;92.14;101817.09;6244846;28;20077;-75
2021/06/10 08:13:35;;;;;;;21.50;17.70;;;;;;;18.98;93.53;101815.50;6248867;28;20098;-74
2021/06/10 08:16:37;;;;;;;25.40;17.08;;;;;;;18.98;93.43;101817.31;6249207;28;20053;-75
2021/06/10 08:19:38;;;;;;;29.42;18.52;;;;;;;19.12;91.80;101814.53;6248761;28;20060;-75
2021/06/10 08:22:39;;;;;;;26.30;18.27;;;;;;;19.33;89.05;101819.25;6249495;28;20045;-76
2021/06/10 08:25:43;;;;;;;25.50;18.00;;;;;;;19.41;88.72;101814.22;6248991;28;20508;-75
2021/06/10 08:28:44;;;;;;;20.10;16.40;;;;;;;19.43;89.75;101810.44;6249037;28;20532;-75
2021/06/10 08:31:46;;;;;;;21.80;17.20;;;;;;;19.57;90.67;101813.91;6249315;28;20128;-76
2021/06/10 08:34:47;;;;;;;25.52;18.88;;;;;;;19.63;90.33;101810.84;6248900;28;20144;-75
2021/06/10 08:37:48;;;;;;;24.05;16.98;;;;;;;19.71;89.50;101822.66;6249217;28;20535;-74
2021/06/10 08:40:49;;;;;;;24.25;17.98;;;;;;;19.88;88.40;101825.84;6249074;28;20496;-75
2021/06/10 08:43:51;;;;;;;24.83;19.08;;;;;;;20.07;85.19;101812.78;6248671;28;20140;-75
2021/06/10 08:46:53;;;;;;;21.15;17.33;;;;;;;20.16;82.67;101817.44;6246765;28;20057;-75
2021/06/10 08:49:55;;;;;;;24.52;19.98;;;;;;;20.30;80.20;101819.03;6248027;28;20049;-75
2021/06/10 08:52:57;;;;;;;27.13;19.67;;;;;;;20.48;78.94;101816.78;6247336;28;20045;-76
2021/06/10 08:55:58;;;;;;;25.15;20.15;;;;;;;20.50;79.46;101815.72;6243587;28;20485;-77
2021/06/10 08:59:00;;;;;;;27.00;20.10;;;;;;;20.39;79.26;101818.31;6246585;28;20095;-76
2021/06/10 09:02:02;;;;;;;24.50;19.20;;;;;;;20.39;80.71;101821.00;6248170;28;20053;-76
2021/06/10 09:05:06;;;;;;;25.52;19.48;;;;;;;20.55;80.57;101820.69;6246649;28;20103;-75
2021/06/10 09:08:09;;;;;;;31.73;22.92;;;;;;;20.69;77.84;101823.13;6223836;28;20049;-74
2021/06/10 09:11:12;;;;;;;26.98;20.77;;;;;;;20.85;76.64;101820.09;6225703;28;20053;-74
2021/06/10 09:14:13;;;;;;;32.22;20.40;;;;;;;21.15;73.40;101818.59;6247342;28;20132;-74
2021/06/10 09:17:30;;;;;;;26.40;20.50;;;;;;;21.27;75.20;101830.97;6248096;28;20060;-75
2021/06/10 09:20:42;;;;;;;29.25;20.85;;;;;;;21.12;74.18;101826.84;6247290;28;20504;-74
2021/06/10 09:23:43;;;;;;;27.85;20.58;;;;;;;21.15;74.00;101819.44;6245837;28;20082;-75
2021/06/10 09:26:46;;;;;;;27.95;20.63;;;;;;;21.21;72.35;101831.47;6246288;28;20092;-74
2021/06/10 09:29:50;;;;;;;29.20;19.35;;;;;;;21.11;73.49;101830.50;6247592;28;20053;-75
2021/06/10 09:32:52;;;;;;;25.88;20.10;;;;;;;21.39;72.11;101827.34;6247282;28;20095;-73
2021/06/10 09:35:54;;;;;;;27.20;20.60;;;;;;;21.52;70.51;101828.00;6247805;28;20493;-73
2021/06/10 09:39:07;;;;;;;24.42;18.70;;;;;;;21.72;69.80;101822.84;6247685;28;20053;-75
2021/06/10 09:42:09;;;;;;;27.05;19.65;;;;;;;21.61;66.42;101823.72;6247817;28;20071;-75
2021/06/10 09:45:12;;;;;;;24.02;19.10;;;;;;;21.56;65.72;101819.75;6247541;28;20053;-75
2021/06/10 09:48:15;;;;;;;25.25;17.52;;;;;;;21.42;68.87;101815.53;6247641;28;20063;-74
2021/06/10 09:51:21;;;;;;;24.60;18.15;;;;;;;21.61;66.76;101820.19;6246986;28;20394;-75
2021/06/10 09:54:38;;;;;;;23.00;18.30;;;;;;;21.57;67.51;101808.91;6246474;28;20132;-75
2021/06/10 09:57:38;;;;;;;23.08;14.98;;;;;;;21.80;66.46;101817.69;6246293;28;20045;-77
2021/06/10 10:00:50;;;;;;;23.58;17.55;;;;;;;21.77;65.86;101813.47;6247516;28;20049;-75
2021/06/10 10:03:53;;;;;;;22.20;14.45;;;;;;;21.63;67.06;101818.28;6247055;28;20096;-73
2021/06/10 10:06:54;;;;;;;16.60;12.60;;;;;;;21.52;67.23;101811.97;6246301;28;20049;-73
2021/06/10 10:09:56;;;;;;;18.40;12.52;;;;;;;21.63;64.08;101812.91;6245722;28;20501;-74
2021/06/10 10:12:58;;;;;;;18.02;12.70;;;;;;;21.67;66.48;101812.53;6246115;28;20054;-74
2021/06/10 10:16:00;;;;;;;22.55;15.48;;;;;;;21.75;66.59;101815.41;6246604;28;20472;-74
2021/06/10 10:19:04;;;;;;;21.08;16.50;;;;;;;21.88;65.27;101806.34;6246653;28;20053;-75
2021/06/10 10:22:10;;;;;;;24.13;15.88;;;;;;;21.98;64.64;101809.94;6246942;28;20458;-76
2021/06/10 10:25:11;;;;;;;22.88;16.33;;;;;;;22.34;62.00;101797.94;6246312;28;20476;-76
2021/06/10 10:28:14;;;;;;;21.23;15.77;;;;;;;22.08;64.45;101793.97;6246881;28;20053;-75
2021/06/10 10:31:15;;;;;;;19.05;14.40;;;;;;;22.05;62.58;101792.38;6246677;28;20423;-74
2021/06/10 10:34:25;;;;;;;19.10;13.85;;;;;;;22.12;63.50;101790.06;6246531;28;20045;-74
2021/06/10 10:37:28;;;;;;;20.60;14.55;;;;;;;22.09;63.28;101796.50;6246419;28;20055;-74
2021/06/10 10:40:31;;;;;;;18.95;14.07;;;;;;;22.44;59.29;101792.66;6246659;28;20065;-72
2021/06/10 10:43:32;;;;;;;20.55;13.40;;;;;;;22.47;60.65;101798.56;6245767;28;20077;-75
2021/06/10 10:46:33;;;;;;;15.50;11.93;;;;;;;22.45;61.42;101795.19;6246637;28;20095;-74
2021/06/10 10:49:43;;;;;;;21.40;13.52;;;;;;;22.44;59.23;101793.50;6246322;28;20132;-74
2021/06/10 10:52:55;;;;;;;20.42;11.48;;;;;;;22.44;57.91;101792.66;6246508;28;20111;-74
2021/06/10 10:56:05;;;;;;;15.38;9.02;;;;;;;22.47;60.50;101790.53;6245960;28;20049;-74
2021/06/10 10:59:14;;;;;;;16.45;9.70;;;;;;;22.65;58.44;101780.03;6246239;28;20416;-75
2021/06/10 11:02:19;;;;;;;11.87;8.47;;;;;;;22.72;56.77;101791.09;6246294;28;20045;-75
2021/06/10 11:05:32;;;;;;;15.90;11.15;;;;;;;22.93;57.33;101793.72;6264666;28;20079;-74
2021/06/10 11:08:58;;;;;;;16.83;11.85;;;;;;;22.93;57.46;101785.66;6255828;28;20050;-74
2021/06/10 11:12:00;;;;;;;14.48;11.38;;;;;;;23.06;56.28;101783.59;6246607;28;20124;-74
2021/06/10 11:15:03;;;;;;;20.15;10.88;;;;;;;23.18;56.40;101777.13;6246198;28;20136;-75
2021/06/10 11:18:07;;;;;;;18.52;11.88;;;;;;;23.36;57.77;101784.50;6245924;28;20053;-74
2021/06/10 11:21:11;;;;;;;18.42;9.80;;;;;;;23.60;56.46;101781.38;6245685;28;20057;-75
2021/06/10 11:24:12;;;;;;;28.58;16.10;;;;;;;23.64;56.76;101786.38;6245920;28;20136;-74
2021/06/10 11:27:13;;;;;;;18.80;14.73;;;;;;;23.61;55.74;101783.06;6246268;28;20107;-74
2021/06/10 11:30:17;;;;;;;21.10;14.57;;;;;;;23.93;57.59;101786.31;6246180;28;20100;-74
2021/06/10 11:33:27;;;;;;;17.83;12.52;;;;;;;24.36;53.70;101782.28;6246088;28;20052;-78
2021/06/10 11:36:29;;;;;;;16.83;11.50;;;;;;;24.50;54.70;101781.00;6244039;28;20083;-76
2021/06/10 11:39:34;;;;;;;16.83;11.40;;;;;;;24.46;51.32;101772.38;6245646;28;20091;-75
2021/06/10 11:42:43;;;;;;;13.63;9.38;;;;;;;24.66;53.77;101777.66;6245680;28;20045;-75
2021/06/10 11:45:45;;;;;;;14.70;8.48;;;;;;;24.91;50.57;101768.06;6245437;28;20424;-77
2021/06/10 11:48:48;;;;;;;14.93;8.68;;;;;;;24.89;49.27;101764.66;6245889;28;20081;-75
2021/06/10 11:51:52;;;;;;;13.68;7.05;;;;;;;25.27;46.62;101766.31;6245629;28;20415;-76
2021/06/10 11:55:01;;;;;;;9.63;5.82;;;;;;;25.32;50.14;101760.47;6246197;28;20045;-74
2021/06/10 11:58:05;;;;;;;8.90;5.57;;;;;;;25.64;47.04;101754.53;6250161;28;20046;-76
2021/06/10 12:01:10;;;;;;;7.13;5.43;;;;;;;25.77;43.60;101758.53;6249078;28;20132;-76
2021/06/10 12:04:11;;;;;;;7.22;4.53;;;;;;;25.96;41.27;101744.03;6241806;28;20459;-76
2021/06/10 12:07:17;;;;;;;4.68;3.75;;;;;;;26.18;40.71;101748.03;6249823;28;20045;-77
2021/06/10 12:10:20;;;;;;;3.88;3.00;;;;;;;26.16;41.53;101750.06;6249674;28;20508;-74
2021/06/10 12:13:29;;;;;;;9.38;5.65;;;;;;;26.08;39.01;101747.31;6250045;28;20056;-75
2021/06/10 12:16:30;;;;;;;9.48;4.82;;;;;;;26.13;39.91;101749.53;6249421;28;20094;-75
2021/06/10 12:19:30;;;;;;;5.45;3.60;;;;;;;26.26;40.09;101745.41;6249694;28;20049;-75
2021/06/10 12:22:42;;;;;;;5.57;4.05;;;;;;;26.53;39.06;101746.25;6249451;28;20496;-76
2021/06/10 12:25:49;;;;;;;10.02;3.72;;;;;;;26.75;39.27;101748.34;6249133;28;20057;-75
2021/06/10 12:28:52;;;;;;;5.53;3.60;;;;;;;26.83;38.60;101739.41;6249328;28;20131;-76
2021/06/10 12:31:52;;;;;;;8.90;3.10;;;;;;;26.93;42.39;101747.38;6249690;28;20072;-76
2021/06/10 12:34:54;;;;;;;4.15;3.30;;;;;;;27.33;38.54;101738.53;6248954;28;20124;-76
2021/06/10 12:37:56;;;;;;;6.07;3.47;;;;;;;27.44;35.37;101738.22;6249250;28;20053;-76
2021/06/10 12:41:14;;;;;;;6.50;3.30;;;;;;;27.34;37.92;101742.06;6249091;28;20404;-75
2021/06/10 12:44:17;;;;;;;9.03;3.70;;;;;;;27.57;36.60;101737.72;6228809;28;20091;-75
2021/06/10 12:47:30;;;;;;;3.85;2.90;;;;;;;27.35;39.73;101736.53;6248861;28;20054;-73
2021/06/10 12:50:31;;;;;;;9.20;3.85;;;;;;;27.49;36.71;101732.31;6248964;28;20132;-74
2021/06/10 12:53:34;;;;;;;4.18;3.22;;;;;;;27.16;37.98;101735.00;6248522;28;20046;-74
2021/06/10 12:56:43;;;;;;;9.95;3.38;;;;;;;27.29;36.27;101724.53;6247123;28;20060;-74
2021/06/10 12:59:52;;;;;;;6.15;3.60;;;;;;;26.63;38.46;101724.53;6246878;28;20460;-75
2021/06/10 13:03:01;;;;;;;;;;;;;;;26.67;37.77;101724.03;6245995;28;20045;-75
2021/06/10 13:06:06;;;;;;;7.45;2.60;;;;;;;26.86;39.74;101725.63;6272145;28;19928;-75
2021/06/10 13:09:22;;;;;;;7.47;2.40;;;;;;;27.25;41.60;101720.50;6253442;28;20492;-75
2021/06/10 13:12:25;;;;;;;9.02;2.97;;;;;;;27.33;37.31;101716.09;6248478;28;20136;-74
2021/06/10 13:15:27;;;;;;;9.75;2.67;;;;;;;27.58;35.90;101722.34;6248121;28;20053;-73
2021/06/10 13:18:33;;;;;;;5.15;2.30;;;;;;;27.44;36.79;101716.63;6248333;28;20048;-74
2021/06/10 13:21:37;;;;;;;5.60;1.98;;;;;;;27.36;35.79;101716.59;6248425;28;20500;-74
2021/06/10 13:24:48;;;;;;;5.90;2.53;;;;;;;27.10;34.36;101715.91;6247487;28;20053;-74
2021/06/10 13:28:07;;;;;;;5.55;2.15;;;;;;;27.22;33.81;101717.28;6248267;28;20412;-75
2021/06/10 13:31:17;;;;;;;6.93;2.17;;;;;;;27.30;33.36;101712.75;6248213;28;20052;-74
2021/06/10 13:34:27;;;;;;;5.00;1.98;;;;;;;27.12;31.93;101709.34;6247838;28;20103;-75
2021/06/10 13:37:28;;;;;;;9.20;2.30;;;;;;;26.93;33.10;101715.00;6258149;28;20478;-75
2021/06/10 13:40:30;;;;;;;2.92;2.00;;;;;;;26.70;32.93;101709.38;6272700;28;20045;-75
2021/06/10 13:43:33;;;;;;;6.45;1.88;;;;;;;27.10;34.60;101716.75;6252303;28;20069;-75
2021/06/10 13:46:34;;;;;;;4.07;1.60;;;;;;;27.38;33.69;101716.44;6247783;28;20053;-74
2021/06/10 13:49:36;;;;;;;5.60;1.90;;;;;;;27.96;30.01;101710.84;6247481;28;20115;-75
2021/06/10 13:52:37;;;;;;;2.00;1.33;;;;;;;27.49;30.14;101711.56;6247642;28;20049;-75